Franklin Strait — V2OD8 — position and weather

sailwx.info

Track history (hours):
 
Tides and Currents Weather Stations Pressure Air Temp Water Temp Dewpoint Dewpoint Depression Visibility Wind Speed Wind Dir Waves Ship Positions

Franklin Strait

Last reported at 2014-Feb-25 08:32 UTC. Time now 2014-Oct-23 11:50 UTC.
Position N 16°45' W 062°24'.
Warning: this ship's position is months out of date.

Length 101 m; draft 5.6 m.

Type: Cargo ship. MMSI: 304198000.

Date/timePositionNaut miles runAvg speedWind from/ knotsBaromVisibWave heightAir tempDewpointWater temp
2014-Feb-25 08:32N 16°45' W 062°24'1813.3
2014-Feb-25 07:12N 16°60' W 062°34'913.3
2014-Feb-25 06:33N 17°07' W 062°39'15 3.5
2014-Feb-25 02:09N 17°19' W 062°49'813.2
2014-Feb-25 01:33N 17°26' W 062°53'1413.6
2014-Feb-25 00:33N 17°39' W 062°56'1413.5
2014-Feb-24 23:33N 17°52' W 062°60'9 8.7
2014-Feb-24 22:32N 18°00' W 063°03'0 0.0
2014-Feb-24 21:32N 18°00' W 063°03'0 0.0
2014-Feb-24 20:33N 18°00' W 063°03'0 0.0
2014-Feb-24 19:33N 18°00' W 063°03'3 3.5
2014-Feb-24 18:33N 18°01' W 063°06'1212.0
2014-Feb-24 17:33N 18°07' W 063°17'1212.1
2014-Feb-24 16:33N 18°14' W 063°27'  
2014-Feb-21 00:33N 26°01' W 079°20'1312.5
2014-Feb-20 23:31N 25°57' W 079°34'1212.7
2014-Feb-20 22:33N 25°52' W 079°46'1212.4
2014-Feb-20 21:33N 25°48' W 079°59'9 8.8
2014-Feb-20 20:33N 25°46' W 080°09'0 0.0
2014-Feb-20 19:33N 25°46' W 080°09'0 0.0
2014-Feb-20 18:33N 25°46' W 080°09'0 0.0
2014-Feb-20 17:30N 25°46' W 080°09'0 0.0
2014-Feb-20 16:33N 25°46' W 080°09'0 0.0
2014-Feb-20 15:33N 25°46' W 080°09'0 0.0
2014-Feb-20 14:33N 25°46' W 080°09'0 0.0
2014-Feb-20 13:33N 25°46' W 080°09'0 0.0
2014-Feb-20 12:33N 25°46' W 080°09'0 0.0
2014-Feb-20 11:33N 25°46' W 080°09'0 0.0
2014-Feb-20 10:33N 25°46' W 080°09'0 0.0
2014-Feb-20 09:33N 25°46' W 080°09'0 0.0
2014-Feb-20 08:33N 25°46' W 080°09'0 0.0
2014-Feb-20 07:33N 25°46' W 080°09'0 0.0
2014-Feb-20 06:33N 25°46' W 080°09'0 0.0
2014-Feb-20 05:33N 25°46' W 080°09'0 0.0
2014-Feb-20 04:33N 25°46' W 080°09'0 0.0
2014-Feb-20 03:33N 25°46' W 080°09'0 0.0
2014-Feb-20 02:33N 25°46' W 080°09'0 0.0
2014-Feb-20 01:33N 25°46' W 080°09'0 0.0
2014-Feb-20 00:33N 25°46' W 080°09'0 0.0
2014-Feb-19 23:32N 25°46' W 080°09'0 0.0
2014-Feb-19 22:32N 25°46' W 080°09'0 0.0
2014-Feb-19 21:32N 25°46' W 080°09'0 0.0
2014-Feb-19 20:32N 25°46' W 080°09'0 0.0
2014-Feb-19 19:32N 25°46' W 080°09'0 0.0
2014-Feb-19 18:32N 25°46' W 080°09'0 0.0
2014-Feb-19 17:32N 25°46' W 080°09'0 0.0
2014-Feb-19 16:32N 25°46' W 080°09'0 0.0
2014-Feb-19 15:32N 25°46' W 080°09'0 0.1
2014-Feb-19 14:32N 25°46' W 080°09'0 0.1
2014-Feb-19 13:33N 25°46' W 080°09'0 0.0
2014-Feb-19 12:33N 25°46' W 080°09'5 4.7
2014-Feb-19 11:33N 25°46' W 080°04'6 6.3
2014-Feb-19 10:33N 25°48' W 079°57'7 7.2
2014-Feb-19 09:33N 25°51' W 079°50'8 8.1
2014-Feb-19 08:33N 25°54' W 079°41'9 9.0
2014-Feb-19 07:33N 25°57' W 079°32'1010.4
2014-Feb-19 06:33N 26°00' W 079°21'  
2014-Feb-15 19:07N 18°18' W 063°32'712.3
2014-Feb-15 18:33N 18°14' W 063°26'1212.3
2014-Feb-15 17:33N 18°07' W 063°16'1212.2
2014-Feb-15 16:33N 18°00' W 063°05'2 2.0
2014-Feb-15 15:32N 18°00' W 063°03'0 0.0
2014-Feb-15 14:32N 18°00' W 063°03'0 0.0
2014-Feb-15 13:32N 18°00' W 063°03'0 0.0
2014-Feb-15 11:33N 18°00' W 063°03'5 4.1
2014-Feb-15 10:28N 17°58' W 063°06'2 1.5
2014-Feb-15 09:28N 17°57' W 063°05'1 1.5
2014-Feb-15 08:34N 17°57' W 063°04'  
Track history (hours):
 
Tides and Currents Weather Stations Pressure Air Temp Water Temp Dewpoint Dewpoint Depression Visibility Wind Speed Wind Dir Waves Ship Positions

Franklin Strait

Last reported at 2014-Feb-25 08:32 UTC. Time now 2014-Oct-23 11:50 UTC.
Position N 16°45' W 062°24'.
Warning: this ship's position is months out of date.

Length 101 m; draft 5.6 m.

Type: Cargo ship. MMSI: 304198000.

Date/timePositionNaut miles runAvg speedWind from/ knotsBaromVisibWave heightAir tempDewpointWater temp
2014-Feb-25 08:32N 16°45' W 062°24'1813.3
2014-Feb-25 07:12N 16°60' W 062°34'913.3
2014-Feb-25 06:33N 17°07' W 062°39'15 3.5
2014-Feb-25 02:09N 17°19' W 062°49'813.2
2014-Feb-25 01:33N 17°26' W 062°53'1413.6
2014-Feb-25 00:33N 17°39' W 062°56'1413.5
2014-Feb-24 23:33N 17°52' W 062°60'9 8.7
2014-Feb-24 22:32N 18°00' W 063°03'0 0.0
2014-Feb-24 21:32N 18°00' W 063°03'0 0.0
2014-Feb-24 20:33N 18°00' W 063°03'0 0.0
2014-Feb-24 19:33N 18°00' W 063°03'3 3.5
2014-Feb-24 18:33N 18°01' W 063°06'1212.0
2014-Feb-24 17:33N 18°07' W 063°17'1212.1
2014-Feb-24 16:33N 18°14' W 063°27'  
2014-Feb-21 00:33N 26°01' W 079°20'1312.5
2014-Feb-20 23:31N 25°57' W 079°34'1212.7
2014-Feb-20 22:33N 25°52' W 079°46'1212.4
2014-Feb-20 21:33N 25°48' W 079°59'9 8.8
2014-Feb-20 20:33N 25°46' W 080°09'0 0.0
2014-Feb-20 19:33N 25°46' W 080°09'0 0.0
2014-Feb-20 18:33N 25°46' W 080°09'0 0.0
2014-Feb-20 17:30N 25°46' W 080°09'0 0.0
2014-Feb-20 16:33N 25°46' W 080°09'0 0.0
2014-Feb-20 15:33N 25°46' W 080°09'0 0.0
2014-Feb-20 14:33N 25°46' W 080°09'0 0.0
2014-Feb-20 13:33N 25°46' W 080°09'0 0.0
2014-Feb-20 12:33N 25°46' W 080°09'0 0.0
2014-Feb-20 11:33N 25°46' W 080°09'0 0.0
2014-Feb-20 10:33N 25°46' W 080°09'0 0.0
2014-Feb-20 09:33N 25°46' W 080°09'0 0.0
2014-Feb-20 08:33N 25°46' W 080°09'0 0.0
2014-Feb-20 07:33N 25°46' W 080°09'0 0.0
2014-Feb-20 06:33N 25°46' W 080°09'0 0.0
2014-Feb-20 05:33N 25°46' W 080°09'0 0.0
2014-Feb-20 04:33N 25°46' W 080°09'0 0.0
2014-Feb-20 03:33N 25°46' W 080°09'0 0.0
2014-Feb-20 02:33N 25°46' W 080°09'0 0.0
2014-Feb-20 01:33N 25°46' W 080°09'0 0.0
2014-Feb-20 00:33N 25°46' W 080°09'0 0.0
2014-Feb-19 23:32N 25°46' W 080°09'0 0.0
2014-Feb-19 22:32N 25°46' W 080°09'0 0.0
2014-Feb-19 21:32N 25°46' W 080°09'0 0.0
2014-Feb-19 20:32N 25°46' W 080°09'0 0.0
2014-Feb-19 19:32N 25°46' W 080°09'0 0.0
2014-Feb-19 18:32N 25°46' W 080°09'0 0.0
2014-Feb-19 17:32N 25°46' W 080°09'0 0.0
2014-Feb-19 16:32N 25°46' W 080°09'0 0.0
2014-Feb-19 15:32N 25°46' W 080°09'0 0.1
2014-Feb-19 14:32N 25°46' W 080°09'0 0.1
2014-Feb-19 13:33N 25°46' W 080°09'0 0.0
2014-Feb-19 12:33N 25°46' W 080°09'5 4.7
2014-Feb-19 11:33N 25°46' W 080°04'6 6.3
2014-Feb-19 10:33N 25°48' W 079°57'7 7.2
2014-Feb-19 09:33N 25°51' W 079°50'8 8.1
2014-Feb-19 08:33N 25°54' W 079°41'9 9.0
2014-Feb-19 07:33N 25°57' W 079°32'1010.4
2014-Feb-19 06:33N 26°00' W 079°21'  
2014-Feb-15 19:07N 18°18' W 063°32'712.3
2014-Feb-15 18:33N 18°14' W 063°26'1212.3
2014-Feb-15 17:33N 18°07' W 063°16'1212.2
2014-Feb-15 16:33N 18°00' W 063°05'2 2.0
2014-Feb-15 15:32N 18°00' W 063°03'0 0.0
2014-Feb-15 14:32N 18°00' W 063°03'0 0.0
2014-Feb-15 13:32N 18°00' W 063°03'0 0.0
2014-Feb-15 11:33N 18°00' W 063°03'5 4.1
2014-Feb-15 10:28N 17°58' W 063°06'2 1.5
2014-Feb-15 09:28N 17°57' W 063°05'1 1.5
2014-Feb-15 08:34N 17°57' W 063°04'  

Dump ship's entire track history